createdAt,value
2022-10-14T00:00:55.826Z,17.81
2022-10-14T00:03:24.712Z,18.03
2022-10-14T00:05:52.694Z,18.04
2022-10-14T00:08:20.372Z,18.04
2022-10-14T00:10:48.100Z,17.97
2022-10-14T00:13:15.840Z,17.93
2022-10-14T00:15:44.913Z,18.13
2022-10-14T00:18:12.638Z,17.91
2022-10-14T00:20:40.358Z,17.98
2022-10-14T00:23:08.095Z,17.91
2022-10-14T00:25:39.727Z,17.88
2022-10-14T00:28:07.496Z,17.80
2022-10-14T00:30:35.328Z,17.64
2022-10-14T00:33:05.634Z,17.17
2022-10-14T00:35:33.437Z,17.24
2022-10-14T00:38:02.143Z,16.89
2022-10-14T00:40:29.836Z,17.62
2022-10-14T00:42:57.594Z,17.81
2022-10-14T00:45:26.710Z,17.83
2022-10-14T00:47:55.741Z,17.60
2022-10-14T00:50:25.325Z,17.52
2022-10-14T00:52:53.178Z,17.53
2022-10-14T00:55:21.264Z,17.38
2022-10-14T00:57:49.090Z,17.30
2022-10-14T01:00:19.174Z,17.21
2022-10-14T01:02:48.817Z,17.40
2022-10-14T01:05:18.920Z,17.47
2022-10-14T01:08:03.035Z,17.40
2022-10-14T01:10:35.111Z,17.39
2022-10-14T01:13:09.337Z,17.38
2022-10-14T01:15:41.443Z,17.41
2022-10-14T01:18:21.181Z,17.35
2022-10-14T01:21:02.795Z,17.41
2022-10-14T01:23:43.914Z,17.18
2022-10-14T01:26:26.291Z,17.39
2022-10-14T01:29:06.334Z,17.27
2022-10-14T01:31:37.597Z,17.25
2022-10-14T01:34:09.649Z,17.32
2022-10-14T01:36:40.185Z,17.04
2022-10-14T01:39:12.611Z,17.27
2022-10-14T01:41:42.864Z,17.55
2022-10-14T01:44:12.193Z,18.51
2022-10-14T01:46:44.736Z,18.39
2022-10-14T01:49:17.141Z,18.71
2022-10-14T01:51:48.283Z,18.94
2022-10-14T01:54:18.316Z,19.17
2022-10-14T01:56:48.572Z,19.05
2022-10-14T01:59:19.688Z,19.03
2022-10-14T02:01:49.255Z,19.08
2022-10-14T02:04:19.291Z,19.09
2022-10-14T02:06:50.736Z,18.98
2022-10-14T02:09:23.832Z,19.08
2022-10-14T02:12:05.096Z,18.64
2022-10-14T02:14:39.083Z,18.57
2022-10-14T02:17:11.276Z,18.82
2022-10-14T02:19:43.547Z,18.87
2022-10-14T02:22:17.248Z,18.42
2022-10-14T02:24:48.075Z,18.56
2022-10-14T02:27:17.532Z,19.11
2022-10-14T02:29:48.436Z,19.22
2022-10-14T02:32:19.589Z,19.37
2022-10-14T02:34:50.274Z,19.55
2022-10-14T02:37:18.846Z,19.51
2022-10-14T02:39:50.148Z,19.58
2022-10-14T02:42:18.066Z,19.73
2022-10-14T02:44:53.417Z,19.79
2022-10-14T02:47:22.994Z,20.00
2022-10-14T02:49:51.088Z,19.82
2022-10-14T02:52:19.505Z,19.93
2022-10-14T02:54:47.730Z,19.92
2022-10-14T02:57:15.462Z,19.93
2022-10-14T02:59:43.176Z,20.11
2022-10-14T03:02:10.957Z,19.34
2022-10-14T03:04:43.061Z,19.51
2022-10-14T03:07:11.446Z,19.47
2022-10-14T03:09:44.999Z,19.42
2022-10-14T03:12:13.191Z,19.62
2022-10-14T03:14:41.565Z,18.62
2022-10-14T03:17:12.619Z,18.00
2022-10-14T03:19:40.984Z,18.75
2022-10-14T03:22:10.586Z,18.71
2022-10-14T03:24:40.094Z,18.36
2022-10-14T03:27:25.973Z,18.00
2022-10-14T03:29:59.024Z,18.10
2022-10-14T03:32:26.756Z,18.13
2022-10-14T03:35:12.946Z,18.08
2022-10-14T03:37:46.549Z,18.14
2022-10-14T03:40:17.003Z,18.29
2022-10-14T03:42:44.998Z,17.56
2022-10-14T03:45:13.124Z,17.50
2022-10-14T03:47:41.981Z,17.13
2022-10-14T03:50:10.894Z,17.80
2022-10-14T03:52:46.796Z,17.48
2022-10-14T03:55:27.106Z,17.63
2022-10-14T03:57:56.320Z,17.43
2022-10-14T04:00:24.215Z,17.95
2022-10-14T04:03:04.809Z,17.12
2022-10-14T04:05:39.655Z,17.89
2022-10-14T04:08:17.774Z,17.76
2022-10-14T04:10:56.290Z,18.10
2022-10-14T04:13:26.008Z,17.89
2022-10-14T04:15:54.068Z,17.62
2022-10-14T04:18:34.080Z,16.72
2022-10-14T04:21:05.473Z,17.63
2022-10-14T04:23:33.567Z,18.08
2022-10-14T04:26:11.033Z,18.09
2022-10-14T04:28:39.865Z,17.74
2022-10-14T04:31:15.210Z,17.87
2022-10-14T04:33:52.047Z,17.42
2022-10-14T04:36:26.403Z,16.79
2022-10-14T04:38:55.160Z,16.51
2022-10-14T04:41:24.292Z,16.18
2022-10-14T04:43:54.280Z,16.88
2022-10-14T04:46:31.501Z,17.92
2022-10-14T04:48:59.681Z,15.71
2022-10-14T04:51:32.609Z,15.80
2022-10-14T04:54:14.768Z,17.30
2022-10-14T04:56:53.308Z,17.26
2022-10-14T04:59:21.057Z,18.09
2022-10-14T05:02:15.221Z,18.18
2022-10-14T05:04:49.781Z,17.41
2022-10-14T05:07:18.120Z,17.30
2022-10-14T05:09:53.078Z,17.92
2022-10-14T05:12:32.857Z,18.98
2022-10-14T05:15:03.383Z,18.14
2022-10-14T05:17:37.870Z,17.56
2022-10-14T05:20:07.548Z,17.39
2022-10-14T05:22:36.740Z,18.10
2022-10-14T05:25:06.209Z,18.10
2022-10-14T05:27:35.388Z,17.63
2022-10-14T05:30:05.730Z,18.38
2022-10-14T05:32:37.655Z,18.85
2022-10-14T05:35:07.689Z,18.46
2022-10-14T05:37:39.365Z,17.63
2022-10-14T05:40:09.231Z,19.82
2022-10-14T05:42:39.517Z,18.45
2022-10-14T05:45:11.436Z,19.44
2022-10-14T05:47:46.602Z,18.40
2022-10-14T05:50:18.663Z,18.35
2022-10-14T05:52:48.291Z,19.21
2022-10-14T05:55:24.423Z,18.83
2022-10-14T05:57:59.021Z,19.51
2022-10-14T06:00:33.068Z,17.81
2022-10-14T06:03:05.996Z,18.24
2022-10-14T06:05:36.581Z,17.37
2022-10-14T06:08:05.268Z,18.64
2022-10-14T06:10:36.181Z,18.99
2022-10-14T06:13:05.647Z,18.75
2022-10-14T06:15:36.772Z,18.83
2022-10-14T06:18:05.051Z,18.26
2022-10-14T06:20:33.648Z,18.98
2022-10-14T06:23:02.288Z,19.72
2022-10-14T06:25:30.647Z,19.41
2022-10-14T06:28:03.586Z,19.38
2022-10-14T06:30:32.892Z,18.71
2022-10-14T06:33:00.789Z,18.70
2022-10-14T06:35:28.823Z,18.96
2022-10-14T06:37:56.591Z,18.48
2022-10-14T06:40:24.630Z,18.63
2022-10-14T06:42:53.602Z,19.12
2022-10-14T06:45:21.579Z,18.26
2022-10-14T06:47:51.081Z,18.15
2022-10-14T06:50:19.799Z,17.04
2022-10-14T06:52:49.774Z,19.16
2022-10-14T06:55:18.129Z,18.52
2022-10-14T06:57:45.980Z,17.75
2022-10-14T07:00:14.455Z,17.97
2022-10-14T07:02:42.241Z,18.19
2022-10-14T07:05:11.939Z,18.72
2022-10-14T07:07:39.734Z,19.55
2022-10-14T07:10:08.277Z,17.21
2022-10-14T07:12:35.990Z,18.68
2022-10-14T07:15:05.046Z,19.10
2022-10-14T07:17:32.884Z,19.34
2022-10-14T07:20:00.593Z,19.35
2022-10-14T07:22:29.946Z,19.37
2022-10-14T07:24:57.705Z,18.47
2022-10-14T07:27:28.385Z,19.18
2022-10-14T07:29:57.047Z,19.91
2022-10-14T07:32:24.839Z,20.84
2022-10-14T07:34:52.825Z,21.76
2022-10-14T07:37:20.931Z,21.73
2022-10-14T07:39:50.356Z,22.29
2022-10-14T07:42:18.081Z,22.05
2022-10-14T07:44:45.924Z,21.13
2022-10-14T07:47:13.658Z,21.95
2022-10-14T07:49:41.385Z,22.01
2022-10-14T07:52:09.142Z,20.56
2022-10-14T07:54:36.909Z,20.46
2022-10-14T07:57:06.088Z,22.41
2022-10-14T07:59:33.939Z,23.75
2022-10-14T08:02:02.117Z,23.79
2022-10-14T08:04:30.001Z,24.31
2022-10-14T08:06:57.829Z,22.85
2022-10-14T08:11:58.623Z,22.57
2022-10-14T08:14:27.830Z,21.61
2022-10-14T08:16:55.605Z,22.99
2022-10-14T08:19:23.527Z,24.07
2022-10-14T08:21:51.673Z,24.69
2022-10-14T08:24:19.425Z,24.73
2022-10-14T08:26:51.316Z,23.89
2022-10-14T08:29:19.345Z,24.52
2022-10-14T08:31:48.394Z,24.91
2022-10-14T08:34:16.160Z,24.61
2022-10-14T08:36:43.844Z,24.66
2022-10-14T08:39:11.566Z,24.11
2022-10-14T08:41:48.256Z,25.35
2022-10-14T08:44:19.408Z,25.97
2022-10-14T08:46:54.149Z,25.06
2022-10-14T08:49:26.145Z,24.45
2022-10-14T08:51:57.526Z,25.36
2022-10-14T08:54:32.029Z,24.95
2022-10-14T08:57:00.153Z,24.56
2022-10-14T08:59:28.669Z,25.74
2022-10-14T09:02:00.646Z,24.86
2022-10-14T09:04:28.534Z,23.10
2022-10-14T09:06:56.658Z,24.86
2022-10-14T09:09:27.706Z,23.76
2022-10-14T09:11:59.672Z,24.53
2022-10-14T09:14:32.155Z,24.84
2022-10-14T09:17:07.952Z,25.30
2022-10-14T09:19:38.498Z,24.27
2022-10-14T09:22:12.726Z,23.26
2022-10-14T09:24:41.779Z,22.97
2022-10-14T09:27:15.333Z,23.34
2022-10-14T09:29:44.784Z,24.87
2022-10-14T09:32:17.214Z,26.79
2022-10-14T09:34:47.879Z,26.41
2022-10-14T09:37:33.993Z,25.20
2022-10-14T09:40:03.993Z,25.34
2022-10-14T09:42:40.827Z,25.13
2022-10-14T09:45:11.637Z,26.46
2022-10-14T09:47:50.998Z,26.14
2022-10-14T09:50:30.121Z,25.89
2022-10-14T09:53:02.006Z,27.76
2022-10-14T09:55:30.052Z,26.88
2022-10-14T09:58:04.398Z,25.61
2022-10-14T10:00:33.552Z,27.21
2022-10-14T10:03:02.828Z,25.97
2022-10-14T10:05:32.638Z,26.35
2022-10-14T10:08:02.762Z,28.45
2022-10-14T10:10:31.682Z,25.75
2022-10-14T10:12:59.729Z,25.71
2022-10-14T10:15:27.475Z,24.57
2022-10-14T10:17:55.368Z,24.46
2022-10-14T10:20:31.802Z,25.26
2022-10-14T10:23:00.300Z,26.74
2022-10-14T10:25:29.322Z,27.06
2022-10-14T10:27:59.747Z,27.09
2022-10-14T10:30:29.535Z,28.22
2022-10-14T10:33:18.159Z,26.94
2022-10-14T10:36:02.068Z,24.69
2022-10-14T10:38:32.288Z,26.44
2022-10-14T10:41:11.768Z,27.61
2022-10-14T10:43:51.382Z,27.31
2022-10-14T10:46:29.607Z,27.47
2022-10-14T10:49:04.260Z,29.42
2022-10-14T10:51:39.069Z,29.16
2022-10-14T10:54:18.257Z,27.51
2022-10-14T10:56:49.773Z,27.69
2022-10-14T10:59:45.663Z,26.85
2022-10-14T11:02:38.785Z,25.64
2022-10-14T11:05:11.262Z,26.09
2022-10-14T11:08:05.205Z,27.59
2022-10-14T11:10:54.684Z,27.93
2022-10-14T11:13:30.732Z,27.40
2022-10-14T11:16:03.991Z,26.42
2022-10-14T11:18:39.081Z,27.26
2022-10-14T11:21:18.029Z,26.74
2022-10-14T11:23:59.654Z,26.91
2022-10-14T11:26:42.097Z,27.84
2022-10-14T11:29:23.465Z,26.90
2022-10-14T11:31:57.701Z,27.82
2022-10-14T11:34:35.316Z,28.18
2022-10-14T11:37:08.144Z,28.45
2022-10-14T11:39:43.051Z,28.61
2022-10-14T11:42:42.674Z,27.74
2022-10-14T11:45:25.055Z,27.67
2022-10-14T11:48:07.358Z,26.66
2022-10-14T11:50:40.406Z,25.86
2022-10-14T11:53:13.324Z,26.94
2022-10-14T11:55:45.367Z,26.85
2022-10-14T11:58:16.724Z,27.98
2022-10-14T12:00:46.154Z,27.92
2022-10-14T12:03:19.622Z,26.61
2022-10-14T12:05:49.836Z,26.87
2022-10-14T12:08:22.203Z,26.50
2022-10-14T12:10:54.889Z,26.42
2022-10-14T12:13:39.241Z,26.39
2022-10-14T12:16:08.841Z,26.75
2022-10-14T12:21:14.447Z,27.72
2022-10-14T12:23:45.009Z,28.57
2022-10-14T12:26:19.803Z,28.63
2022-10-14T12:28:48.232Z,28.68
2022-10-14T12:31:27.715Z,26.53
2022-10-14T12:34:18.979Z,27.52
2022-10-14T12:36:48.685Z,26.68
2022-10-14T12:39:24.116Z,27.36
2022-10-14T12:41:54.819Z,26.21
2022-10-14T12:44:24.552Z,26.66
2022-10-14T12:46:54.243Z,27.03
2022-10-14T12:49:28.336Z,27.15
2022-10-14T12:51:57.677Z,27.72
2022-10-14T12:54:27.026Z,28.23
2022-10-14T12:56:57.956Z,27.23
2022-10-14T12:59:28.859Z,27.06
2022-10-14T13:01:58.710Z,27.49
2022-10-14T13:04:28.571Z,28.02
2022-10-14T13:07:41.781Z,30.60
2022-10-14T13:10:52.474Z,31.56
2022-10-14T13:13:54.963Z,32.86
2022-10-14T13:17:05.613Z,35.56
2022-10-14T13:19:43.433Z,33.14
2022-10-14T13:22:41.762Z,32.85
2022-10-14T13:25:16.020Z,31.06
2022-10-14T13:28:06.159Z,29.24
2022-10-14T13:30:40.507Z,27.39
2022-10-14T13:33:17.331Z,27.43
2022-10-14T13:35:53.881Z,26.71
2022-10-14T13:38:23.673Z,27.29
2022-10-14T13:40:53.490Z,27.95
2022-10-14T13:43:26.733Z,26.22
2022-10-14T13:46:04.461Z,28.62
2022-10-14T13:48:34.706Z,28.40
2022-10-14T13:51:36.973Z,27.33
2022-10-14T13:54:16.917Z,27.70
2022-10-14T13:56:45.362Z,25.34
2022-10-14T13:59:43.279Z,26.45
2022-10-14T14:02:15.791Z,27.12
2022-10-14T14:04:47.580Z,25.42
2022-10-14T14:07:59.182Z,27.25
2022-10-14T14:10:09.010Z,28.02
2022-10-14T14:12:36.940Z,28.23
2022-10-14T14:15:05.573Z,26.89
2022-10-14T14:17:35.912Z,26.57
2022-10-14T14:20:03.781Z,26.10
2022-10-14T14:22:32.246Z,25.62
2022-10-14T14:25:31.771Z,25.58
2022-10-14T14:28:02.906Z,26.89
2022-10-14T14:30:33.204Z,25.45
2022-10-14T14:33:04.583Z,27.08
2022-10-14T14:35:32.338Z,25.51
2022-10-14T14:38:00.351Z,26.54
2022-10-14T14:40:29.972Z,25.49
2022-10-14T14:43:00.265Z,28.44
2022-10-14T14:45:30.804Z,30.16
2022-10-14T14:48:00.141Z,29.85
2022-10-14T14:50:32.774Z,30.90
2022-10-14T14:53:04.361Z,30.93
2022-10-14T14:55:37.774Z,31.27
2022-10-14T14:58:07.553Z,29.14
2022-10-14T15:00:35.297Z,28.83
2022-10-14T15:03:05.008Z,29.34
2022-10-14T15:05:34.165Z,29.10
2022-10-14T15:08:01.942Z,25.20
2022-10-14T15:10:31.590Z,25.05
2022-10-14T15:13:02.621Z,25.91
2022-10-14T15:15:35.114Z,25.17
2022-10-14T15:18:14.485Z,24.98
2022-10-14T15:20:44.297Z,26.01
2022-10-14T15:23:40.878Z,25.55
2022-10-14T15:26:25.413Z,26.36
2022-10-14T15:29:12.041Z,27.70
2022-10-14T15:31:41.231Z,28.05
2022-10-14T15:34:17.135Z,27.04
2022-10-14T15:36:46.565Z,26.98
2022-10-14T15:39:14.871Z,27.45
2022-10-14T15:41:43.440Z,27.10
2022-10-14T15:44:11.188Z,26.94
2022-10-14T15:46:56.505Z,26.58
2022-10-14T15:49:27.646Z,25.67
2022-10-14T15:51:56.936Z,26.28
2022-10-14T15:54:27.434Z,26.37
2022-10-14T15:59:31.846Z,25.63
2022-10-14T16:01:59.819Z,25.84
2022-10-14T16:04:29.537Z,25.82
2022-10-14T16:06:58.678Z,26.44
2022-10-14T16:09:27.725Z,26.39
2022-10-14T16:11:58.081Z,25.91
2022-10-14T16:14:27.050Z,25.26
2022-10-14T16:16:55.205Z,25.51
2022-10-14T16:19:23.098Z,25.18
2022-10-14T16:21:50.894Z,24.92
2022-10-14T16:24:21.889Z,25.00
2022-10-14T16:26:49.909Z,25.08
2022-10-14T16:29:18.149Z,25.18
2022-10-14T16:31:46.923Z,25.02
2022-10-14T16:34:14.710Z,25.10
2022-10-14T16:36:42.569Z,24.89
2022-10-14T16:39:11.086Z,24.93
2022-10-14T16:41:40.420Z,24.75
2022-10-14T16:44:08.352Z,25.06
2022-10-14T16:46:53.805Z,25.03
2022-10-14T16:49:21.585Z,25.12
2022-10-14T16:51:49.256Z,24.93
2022-10-14T16:54:17.120Z,24.94
2022-10-14T16:56:56.902Z,24.91
2022-10-14T16:59:25.551Z,24.71
2022-10-14T17:01:53.691Z,24.18
2022-10-14T17:04:21.615Z,24.31
2022-10-14T17:06:56.671Z,23.91
2022-10-14T17:12:03.068Z,24.13
2022-10-14T17:14:32.186Z,24.20
2022-10-14T17:17:00.300Z,23.49
2022-10-14T17:19:28.856Z,23.41
2022-10-14T17:21:56.587Z,24.28
2022-10-14T17:24:24.505Z,22.91
2022-10-14T17:26:52.181Z,24.39
2022-10-14T17:29:21.728Z,23.87
2022-10-14T17:31:51.252Z,24.03
2022-10-14T17:34:19.030Z,23.46
2022-10-14T17:36:46.734Z,23.62
2022-10-14T17:39:20.184Z,23.54
2022-10-14T17:41:53.736Z,23.55
2022-10-14T17:44:22.846Z,23.23
2022-10-14T17:46:50.591Z,22.99
2022-10-14T17:49:18.313Z,23.07
2022-10-14T17:51:46.102Z,23.49
2022-10-14T17:54:13.986Z,23.14
2022-10-14T17:56:42.987Z,23.52
2022-10-14T17:59:12.483Z,23.53
2022-10-14T18:04:29.400Z,23.27
2022-10-14T18:06:58.504Z,23.25
2022-10-14T18:09:26.216Z,23.23
2022-10-14T18:12:08.206Z,23.49
2022-10-14T18:14:37.294Z,23.15
2022-10-14T18:17:06.830Z,23.44
2022-10-14T18:19:35.037Z,22.99
2022-10-14T18:22:03.316Z,22.37
2022-10-14T18:24:31.047Z,22.57
2022-10-14T18:26:58.783Z,22.28
2022-10-14T18:29:26.662Z,22.22
2022-10-14T18:31:54.392Z,22.45
2022-10-14T18:34:25.308Z,22.48
2022-10-14T18:36:53.091Z,21.78
2022-10-14T18:39:21.198Z,22.56
2022-10-14T18:41:49.006Z,23.01
2022-10-14T18:44:16.948Z,22.53
2022-10-14T18:46:44.689Z,22.15
2022-10-14T18:49:12.832Z,23.28
2022-10-14T18:51:43.386Z,22.79
2022-10-14T18:54:15.859Z,22.50
2022-10-14T18:56:44.478Z,22.10
2022-10-14T18:59:13.867Z,22.32
2022-10-14T19:01:42.223Z,22.17
2022-10-14T19:04:12.928Z,22.20
2022-10-14T19:06:44.864Z,22.52
2022-10-14T19:09:13.695Z,22.20
2022-10-14T19:11:42.169Z,22.34
2022-10-14T19:14:10.777Z,22.22
2022-10-14T19:16:39.584Z,22.29
2022-10-14T19:19:11.569Z,22.47
2022-10-14T19:21:39.590Z,22.60
2022-10-14T19:24:09.095Z,22.55
2022-10-14T19:26:39.207Z,22.25
2022-10-14T19:29:10.588Z,22.38
2022-10-14T19:31:40.400Z,22.21
2022-10-14T19:34:09.822Z,22.70
2022-10-14T19:36:39.678Z,22.78
2022-10-14T19:39:11.158Z,22.72
2022-10-14T19:41:43.021Z,22.24
2022-10-14T19:44:11.951Z,22.51
2022-10-14T19:46:40.385Z,21.86
2022-10-14T19:49:08.142Z,22.78
2022-10-14T19:51:36.190Z,22.47
2022-10-14T19:54:04.074Z,22.39
2022-10-14T19:56:33.384Z,22.44
2022-10-14T19:59:01.983Z,22.00
2022-10-14T20:01:30.969Z,22.16
2022-10-14T20:04:02.147Z,21.97
2022-10-14T20:06:31.660Z,21.58
2022-10-14T20:08:59.680Z,21.86
2022-10-14T20:11:27.891Z,22.50
2022-10-14T20:13:57.251Z,22.31
2022-10-14T20:16:26.334Z,21.74
2022-10-14T20:18:54.150Z,22.53
2022-10-14T20:21:21.859Z,22.72
2022-10-14T20:23:49.558Z,22.75
2022-10-14T20:26:19.832Z,22.05
2022-10-14T20:28:48.158Z,22.47
2022-10-14T20:31:19.273Z,23.00
2022-10-14T20:33:47.436Z,22.59
2022-10-14T20:36:17.457Z,22.10
2022-10-14T20:38:45.547Z,22.81
2022-10-14T20:41:15.036Z,22.89
2022-10-14T20:43:43.832Z,21.43
2022-10-14T20:46:11.526Z,23.12
2022-10-14T20:48:40.707Z,21.74
2022-10-14T20:51:11.680Z,21.97
2022-10-14T20:56:13.579Z,22.42
2022-10-14T20:58:41.441Z,22.78
2022-10-14T21:01:13.345Z,23.16
2022-10-14T21:03:43.894Z,22.93
2022-10-14T21:06:13.391Z,22.78
2022-10-14T21:08:41.233Z,22.49
2022-10-14T21:11:13.960Z,22.91
2022-10-14T21:13:45.234Z,22.40
2022-10-14T21:16:17.554Z,22.27
2022-10-14T21:18:55.138Z,22.90
2022-10-14T21:21:26.475Z,23.08
2022-10-14T21:23:54.514Z,22.56
2022-10-14T21:26:22.557Z,23.05
2022-10-14T21:28:50.415Z,22.84
2022-10-14T21:33:49.004Z,22.50
2022-10-14T21:36:17.610Z,22.55
2022-10-14T21:38:45.435Z,21.32
2022-10-14T21:41:13.473Z,21.32
2022-10-14T21:43:41.329Z,21.87
2022-10-14T21:46:10.927Z,21.46
2022-10-14T21:48:38.799Z,21.26
2022-10-14T21:51:10.328Z,21.79
2022-10-14T21:53:38.685Z,22.73
2022-10-14T21:56:07.267Z,22.73
2022-10-14T21:58:35.739Z,22.00
2022-10-14T22:01:04.811Z,21.23
2022-10-14T22:03:32.717Z,22.23
2022-10-14T22:06:02.221Z,21.06
2022-10-14T22:08:32.037Z,22.72
2022-10-14T22:10:59.818Z,22.57
2022-10-14T22:13:27.787Z,22.83
2022-10-14T22:15:56.128Z,22.75
2022-10-14T22:18:24.333Z,21.36
2022-10-14T22:21:00.964Z,21.65
2022-10-14T22:23:28.658Z,21.58
2022-10-14T22:26:00.438Z,22.31
2022-10-14T22:28:28.455Z,21.79
2022-10-14T22:30:56.247Z,22.09
2022-10-14T22:33:24.030Z,21.72
2022-10-14T22:35:51.970Z,21.63
2022-10-14T22:38:19.712Z,21.97
2022-10-14T22:40:47.391Z,21.71
2022-10-14T22:43:16.496Z,22.17
2022-10-14T22:45:44.231Z,22.69
2022-10-14T22:48:12.006Z,21.80
2022-10-14T22:50:39.742Z,21.81
2022-10-14T22:53:07.472Z,20.97
2022-10-14T22:55:35.192Z,20.20
2022-10-14T22:58:03.163Z,20.98
2022-10-14T23:00:32.715Z,21.31
2022-10-14T23:03:00.554Z,20.68
2022-10-14T23:05:28.793Z,21.23
2022-10-14T23:07:56.534Z,21.26
2022-10-14T23:10:24.255Z,21.49
2022-10-14T23:12:52.014Z,20.52
2022-10-14T23:15:20.292Z,21.30
2022-10-14T23:17:49.377Z,21.30
2022-10-14T23:20:17.087Z,21.17
2022-10-14T23:22:44.816Z,21.77
2022-10-14T23:25:13.832Z,21.25
2022-10-14T23:27:41.613Z,21.05
2022-10-14T23:30:10.239Z,20.51
2022-10-14T23:32:39.328Z,20.98
2022-10-14T23:35:09.492Z,21.38
2022-10-14T23:37:37.255Z,20.91
2022-10-14T23:40:05.584Z,21.16
2022-10-14T23:42:33.347Z,21.69
2022-10-14T23:45:01.883Z,22.21
2022-10-14T23:47:29.588Z,22.00
2022-10-14T23:49:57.304Z,22.28
2022-10-14T23:52:27.002Z,21.87
2022-10-14T23:57:27.412Z,21.67
2022-10-14T23:59:55.523Z,21.67
